createdAt,value
2018-07-10T00:00:13.482Z,69.96
2018-07-10T00:03:24.642Z,68.02
2018-07-10T00:08:11.049Z,66.66
2018-07-10T00:11:48.591Z,68.16
2018-07-10T00:14:18.482Z,69.27
2018-07-10T00:16:48.258Z,67.01
2018-07-10T00:19:18.259Z,66.97
2018-07-10T00:21:48.034Z,64.88
2018-07-10T00:24:17.910Z,64.15
2018-07-10T00:26:48.017Z,64.60
2018-07-10T00:29:17.733Z,64.53
2018-07-10T00:31:47.498Z,66.53
2018-07-10T00:34:17.407Z,68.17
2018-07-10T00:36:47.159Z,67.23
2018-07-10T00:39:17.282Z,68.08
2018-07-10T00:41:47.101Z,68.85
2018-07-10T00:44:16.915Z,69.37
2018-07-10T00:46:46.806Z,70.22
2018-07-10T00:49:16.594Z,71.55
2018-07-10T00:51:46.311Z,71.97
2018-07-10T00:54:16.150Z,70.25
2018-07-10T00:56:46.104Z,70.32
2018-07-10T00:59:15.975Z,69.19
2018-07-10T01:01:46.278Z,65.95
2018-07-10T01:04:16.021Z,66.59
2018-07-10T01:06:45.918Z,65.70
2018-07-10T01:09:16.898Z,65.79
2018-07-10T01:11:46.786Z,63.85
2018-07-10T01:14:16.937Z,66.05
2018-07-10T01:16:46.663Z,67.52
2018-07-10T01:19:18.165Z,67.79
2018-07-10T01:21:49.002Z,67.17
2018-07-10T01:24:19.851Z,66.83
2018-07-10T01:26:51.386Z,64.90
2018-07-10T01:29:26.433Z,63.85
2018-07-10T01:31:56.624Z,63.39
2018-07-10T01:34:27.182Z,63.21
2018-07-10T01:36:57.017Z,62.95
2018-07-10T01:39:26.841Z,62.42
2018-07-10T01:41:56.765Z,62.19
2018-07-10T01:44:27.555Z,62.56
2018-07-10T01:46:57.454Z,62.80
2018-07-10T01:49:27.592Z,63.46
2018-07-10T01:51:57.490Z,63.43
2018-07-10T01:54:28.175Z,63.00
2018-07-10T01:56:58.079Z,62.77
2018-07-10T01:59:28.050Z,62.54
2018-07-10T02:01:57.971Z,63.17
2018-07-10T02:04:28.375Z,65.05
2018-07-10T02:06:58.469Z,64.03
2018-07-10T02:09:28.511Z,63.81
2018-07-10T02:11:58.817Z,63.16
2018-07-10T02:14:29.086Z,62.60
2018-07-10T02:16:59.026Z,63.59
2018-07-10T02:19:29.070Z,62.54
2018-07-10T02:21:59.041Z,64.69
2018-07-10T02:24:30.106Z,63.81
2018-07-10T02:27:00.512Z,63.17
2018-07-10T02:29:30.850Z,63.89
2018-07-10T02:32:00.909Z,64.10
2018-07-10T02:34:31.189Z,63.79
2018-07-10T02:37:02.075Z,64.26
2018-07-10T02:39:31.936Z,63.62
2018-07-10T02:42:02.152Z,63.60
2018-07-10T02:44:33.083Z,62.94
2018-07-10T02:47:03.079Z,63.71
2018-07-10T02:49:33.079Z,64.08
2018-07-10T02:52:06.077Z,64.47
2018-07-10T02:54:37.690Z,64.37
2018-07-10T02:57:09.720Z,64.83
2018-07-10T02:59:41.720Z,65.96
2018-07-10T03:02:24.635Z,64.56
2018-07-10T03:04:58.580Z,63.93
2018-07-10T03:07:30.135Z,64.08
2018-07-10T03:10:01.304Z,64.17
2018-07-10T03:12:35.727Z,64.59
2018-07-10T03:16:30.797Z,66.70
2018-07-10T03:19:00.675Z,64.53
2018-07-10T03:21:30.727Z,63.95
2018-07-10T03:24:00.586Z,63.70
2018-07-10T03:26:30.489Z,64.19
2018-07-10T03:29:00.493Z,66.47
2018-07-10T03:31:30.403Z,65.72
2018-07-10T03:34:00.499Z,64.59
2018-07-10T03:36:30.555Z,64.53
2018-07-10T03:39:01.063Z,64.79
2018-07-10T03:41:31.005Z,64.11
2018-07-10T03:44:01.785Z,63.34
2018-07-10T03:46:32.346Z,64.41
2018-07-10T03:49:02.430Z,63.70
2018-07-10T03:51:32.365Z,63.46
2018-07-10T03:54:03.412Z,64.45
2018-07-10T03:56:33.418Z,63.84
2018-07-10T03:59:03.439Z,63.71
2018-07-10T04:01:36.025Z,63.90
2018-07-10T04:04:06.722Z,63.41
2018-07-10T04:06:36.815Z,63.54
2018-07-10T04:09:08.115Z,64.23
2018-07-10T04:11:41.682Z,63.45
2018-07-10T04:14:12.340Z,63.39
2018-07-10T04:16:42.246Z,64.03
2018-07-10T04:19:12.183Z,63.20
2018-07-10T04:21:42.757Z,62.64
2018-07-10T04:24:16.369Z,62.66
2018-07-10T04:27:37.465Z,69.28
2018-07-10T04:30:14.506Z,70.54
2018-07-10T04:32:44.811Z,72.03
2018-07-10T04:35:21.413Z,71.43
2018-07-10T04:37:52.308Z,70.64
2018-07-10T04:40:22.298Z,72.00
2018-07-10T04:43:00.489Z,71.90
2018-07-10T04:45:42.260Z,71.33
2018-07-10T04:48:22.064Z,70.56
2018-07-10T04:50:56.525Z,67.83
2018-07-10T04:53:36.601Z,69.04
2018-07-10T04:56:06.635Z,70.55
2018-07-10T04:58:36.535Z,69.07
2018-07-10T05:01:06.882Z,69.19
2018-07-10T05:03:36.747Z,68.65
2018-07-10T05:06:09.001Z,68.00
2018-07-10T05:08:39.104Z,65.27
2018-07-10T05:11:09.383Z,66.86
2018-07-10T05:13:39.467Z,66.53
2018-07-10T05:16:09.512Z,64.52
2018-07-10T05:18:39.519Z,64.72
2018-07-10T05:21:15.911Z,63.88
2018-07-10T05:23:45.889Z,63.75
2018-07-10T05:26:18.554Z,63.35
2018-07-10T05:28:51.843Z,67.93
2018-07-10T05:31:23.576Z,68.47
2018-07-10T05:33:53.542Z,66.87
2018-07-10T05:36:25.210Z,67.16
2018-07-10T05:38:59.677Z,67.76
2018-07-10T05:41:30.936Z,65.67
2018-07-10T05:44:00.876Z,65.60
2018-07-10T05:46:30.783Z,66.82
2018-07-10T05:49:05.424Z,65.44
2018-07-10T05:51:52.463Z,65.34
2018-07-10T05:54:23.280Z,63.45
2018-07-10T05:56:53.157Z,62.84
2018-07-10T05:59:23.531Z,60.50
2018-07-10T06:01:54.756Z,60.11
2018-07-10T06:04:24.738Z,58.28
2018-07-10T06:06:54.643Z,61.53
2018-07-10T06:09:24.417Z,60.60
2018-07-10T06:11:55.445Z,58.55
2018-07-10T06:14:25.494Z,56.53
2018-07-10T06:16:55.404Z,57.90
2018-07-10T06:19:25.238Z,56.66
2018-07-10T06:21:55.163Z,57.03
2018-07-10T06:24:29.424Z,58.05
2018-07-10T06:27:06.127Z,57.29
2018-07-10T06:30:10.395Z,55.06
2018-07-10T06:32:53.791Z,54.60
2018-07-10T06:35:32.522Z,57.11
2018-07-10T06:38:02.890Z,56.58
2018-07-10T06:40:34.157Z,53.55
2018-07-10T06:43:15.718Z,53.53
2018-07-10T06:45:45.550Z,54.27
2018-07-10T06:48:15.481Z,53.72
2018-07-10T06:50:45.605Z,49.20
2018-07-10T06:53:16.017Z,47.10
2018-07-10T06:55:57.739Z,45.71
2018-07-10T06:58:31.939Z,47.28
2018-07-10T07:01:04.930Z,46.50
2018-07-10T07:03:34.913Z,47.86
2018-07-10T07:06:04.723Z,48.99
2018-07-10T07:08:34.617Z,49.42
2018-07-10T07:11:04.864Z,51.70
2018-07-10T07:13:34.674Z,45.85
2018-07-10T07:16:04.607Z,47.21
2018-07-10T07:18:34.417Z,47.45
2018-07-10T07:21:05.260Z,45.51
2018-07-10T07:23:35.251Z,42.04
2018-07-10T07:26:09.142Z,42.36
2018-07-10T07:28:39.278Z,42.44
2018-07-10T07:31:10.311Z,43.35
2018-07-10T07:33:40.242Z,42.46
2018-07-10T07:36:09.863Z,44.40
2018-07-10T07:38:39.665Z,42.35
2018-07-10T07:41:09.953Z,43.33
2018-07-10T07:43:39.978Z,42.71
2018-07-10T07:46:09.721Z,42.13
2018-07-10T07:48:39.777Z,41.14
2018-07-10T07:51:09.780Z,42.94
2018-07-10T07:53:39.801Z,40.12
2018-07-10T07:56:09.713Z,38.57
2018-07-10T07:58:39.518Z,39.69
2018-07-10T08:01:09.480Z,39.79
2018-07-10T08:03:39.771Z,38.72
2018-07-10T08:06:09.872Z,40.50
2018-07-10T08:08:39.967Z,39.53
2018-07-10T08:11:10.586Z,38.78
2018-07-10T08:13:40.687Z,34.64
2018-07-10T08:16:10.645Z,34.72
2018-07-10T08:18:40.554Z,33.59
2018-07-10T08:21:11.270Z,33.97
2018-07-10T08:23:41.213Z,31.86
2018-07-10T08:26:11.304Z,36.13
2018-07-10T08:28:41.354Z,34.36
2018-07-10T08:31:11.289Z,30.82
2018-07-10T08:33:41.372Z,31.46
2018-07-10T08:36:11.467Z,31.80
2018-07-10T08:38:42.662Z,32.23
2018-07-10T08:41:19.567Z,33.00
2018-07-10T08:43:49.659Z,34.04
2018-07-10T08:46:25.375Z,32.35
2018-07-10T08:48:55.934Z,31.82
2018-07-10T08:51:26.521Z,32.95
2018-07-10T08:53:57.257Z,34.49
2018-07-10T08:56:28.156Z,33.41
2018-07-10T08:58:58.373Z,32.87
2018-07-10T09:01:31.109Z,31.65
2018-07-10T09:04:01.454Z,31.40
2018-07-10T09:06:32.314Z,31.06
2018-07-10T09:09:03.217Z,32.20
2018-07-10T09:11:34.392Z,30.06
2018-07-10T09:14:04.800Z,31.01
2018-07-10T09:16:35.413Z,33.31
2018-07-10T09:19:06.841Z,29.27
2018-07-10T09:21:37.794Z,28.29
2018-07-10T09:24:08.932Z,28.90
2018-07-10T09:26:39.500Z,28.69
2018-07-10T09:29:10.519Z,29.29
2018-07-10T09:31:41.058Z,29.72
2018-07-10T09:34:11.708Z,32.11
2018-07-10T09:36:42.321Z,32.15
2018-07-10T09:39:13.462Z,31.01
2018-07-10T09:41:44.165Z,30.94
2018-07-10T09:44:14.633Z,26.56
2018-07-10T09:46:44.690Z,27.13
2018-07-10T09:49:14.672Z,24.31
2018-07-10T09:51:45.210Z,26.59
2018-07-10T09:54:15.133Z,30.17
2018-07-10T09:56:45.116Z,26.64
2018-07-10T09:59:15.296Z,25.60
2018-07-10T10:01:45.860Z,26.74
2018-07-10T10:04:16.084Z,24.25
2018-07-10T10:06:46.005Z,24.81
2018-07-10T10:09:16.002Z,22.67
2018-07-10T10:11:45.862Z,23.08
2018-07-10T10:14:15.883Z,23.07
2018-07-10T10:16:45.950Z,25.05
2018-07-10T10:19:16.104Z,24.38
2018-07-10T10:21:46.517Z,24.46
2018-07-10T10:24:16.503Z,24.50
2018-07-10T10:26:46.655Z,26.15
2018-07-10T10:29:16.663Z,24.64
2018-07-10T10:31:47.394Z,26.70
2018-07-10T10:34:17.673Z,25.18
2018-07-10T10:36:47.484Z,25.49
2018-07-10T10:39:17.638Z,27.04
2018-07-10T10:41:48.848Z,24.45
2018-07-10T10:44:18.781Z,28.90
2018-07-10T10:46:48.949Z,26.90
2018-07-10T10:49:18.894Z,27.04
2018-07-10T10:51:49.987Z,28.18
2018-07-10T10:54:20.127Z,26.81
2018-07-10T10:56:50.061Z,28.68
2018-07-10T10:59:20.138Z,29.52
2018-07-10T11:01:51.129Z,32.54
2018-07-10T11:04:21.243Z,32.89
2018-07-10T11:06:51.451Z,35.02
2018-07-10T11:09:21.473Z,33.76
2018-07-10T11:11:51.888Z,32.52
2018-07-10T11:14:22.002Z,32.24
2018-07-10T11:16:52.166Z,32.26
2018-07-10T11:20:30.883Z,29.64
2018-07-10T11:23:08.322Z,27.54
2018-07-10T11:25:42.744Z,28.62
2018-07-10T11:28:14.047Z,29.88
2018-07-10T11:30:44.192Z,28.53
2018-07-10T11:33:14.252Z,28.65
2018-07-10T11:35:44.347Z,28.99
2018-07-10T11:38:15.273Z,29.83
2018-07-10T11:40:47.134Z,30.83
2018-07-10T11:43:16.974Z,30.46
2018-07-10T11:45:47.048Z,29.05
2018-07-10T11:48:16.898Z,27.15
2018-07-10T11:50:46.752Z,30.31
2018-07-10T11:53:16.799Z,28.94
2018-07-10T11:55:46.885Z,27.22
2018-07-10T11:58:16.880Z,25.74
2018-07-10T12:00:46.929Z,25.54
2018-07-10T12:03:16.739Z,29.04
2018-07-10T12:05:46.567Z,28.29
2018-07-10T12:08:16.502Z,30.58
2018-07-10T12:10:50.480Z,32.32
2018-07-10T12:13:20.483Z,31.44
2018-07-10T12:15:50.399Z,32.52
2018-07-10T12:18:20.645Z,31.18
2018-07-10T12:20:50.803Z,31.19
2018-07-10T12:23:20.798Z,32.76
2018-07-10T12:25:50.790Z,32.93
2018-07-10T12:28:21.443Z,34.74
2018-07-10T12:30:51.534Z,34.41
2018-07-10T12:33:21.517Z,32.38
2018-07-10T12:35:51.440Z,31.17
2018-07-10T12:38:21.357Z,30.19
2018-07-10T12:40:51.290Z,28.69
2018-07-10T12:43:21.243Z,30.65
2018-07-10T12:45:51.258Z,32.29
2018-07-10T12:48:21.139Z,30.04
2018-07-10T12:50:51.218Z,29.98
2018-07-10T12:53:21.164Z,31.19
2018-07-10T12:55:51.172Z,30.46
2018-07-10T12:58:21.186Z,31.59
2018-07-10T13:00:51.955Z,32.58
2018-07-10T13:03:24.254Z,30.30
2018-07-10T13:05:57.700Z,31.37
2018-07-10T13:08:27.887Z,31.61
2018-07-10T13:10:57.796Z,31.10
2018-07-10T13:13:27.591Z,28.81
2018-07-10T13:15:57.414Z,30.47
2018-07-10T13:18:30.251Z,31.73
2018-07-10T13:21:00.235Z,31.09
2018-07-10T13:23:30.181Z,30.35
2018-07-10T13:26:00.037Z,29.40
2018-07-10T13:28:30.357Z,31.22
2018-07-10T13:31:00.323Z,31.60
2018-07-10T13:33:30.392Z,28.70
2018-07-10T13:36:00.289Z,28.50
2018-07-10T13:38:30.338Z,29.88
2018-07-10T13:41:01.996Z,30.71
2018-07-10T13:43:31.803Z,31.20
2018-07-10T13:46:01.817Z,32.07
2018-07-10T13:48:32.312Z,31.61
2018-07-10T13:51:02.317Z,31.06
2018-07-10T13:53:32.331Z,29.83
2018-07-10T13:56:02.266Z,30.73
2018-07-10T13:58:33.686Z,29.38
2018-07-10T14:01:05.645Z,30.45
2018-07-10T14:03:36.130Z,31.66
2018-07-10T14:06:06.447Z,31.11
2018-07-10T14:08:36.503Z,31.32
2018-07-10T14:11:06.442Z,30.61
2018-07-10T14:13:36.490Z,32.75
2018-07-10T14:16:06.409Z,30.46
2018-07-10T14:18:36.233Z,29.28
2018-07-10T14:21:08.922Z,30.85
2018-07-10T14:23:38.814Z,29.33
2018-07-10T14:26:08.974Z,29.17
2018-07-10T14:28:39.253Z,32.08
2018-07-10T14:31:09.139Z,31.25
2018-07-10T14:33:39.153Z,31.58
2018-07-10T14:36:09.340Z,32.11
2018-07-10T14:38:42.638Z,33.10
2018-07-10T14:41:13.337Z,33.43
2018-07-10T14:43:45.181Z,33.69
2018-07-10T14:46:22.070Z,34.17
2018-07-10T14:49:08.339Z,34.21
2018-07-10T14:51:46.991Z,33.55
2018-07-10T14:54:17.565Z,33.41
2018-07-10T14:56:47.697Z,33.82
2018-07-10T14:59:17.627Z,35.88
2018-07-10T15:01:47.670Z,34.50
2018-07-10T15:04:17.531Z,35.89
2018-07-10T15:06:47.430Z,35.62
2018-07-10T15:09:17.724Z,36.85
2018-07-10T15:11:47.528Z,37.08
2018-07-10T15:14:17.504Z,37.51
2018-07-10T15:16:52.291Z,38.73
2018-07-10T15:19:22.147Z,39.70
2018-07-10T15:21:52.121Z,39.26
2018-07-10T15:24:22.044Z,38.98
2018-07-10T15:26:52.872Z,39.88
2018-07-10T15:29:28.775Z,39.80
2018-07-10T15:31:59.980Z,40.85
2018-07-10T15:34:29.722Z,40.68
2018-07-10T15:36:59.749Z,39.92
2018-07-10T15:39:29.706Z,39.11
2018-07-10T15:41:59.549Z,38.62
2018-07-10T15:44:29.246Z,38.56
2018-07-10T15:46:59.207Z,39.19
2018-07-10T15:49:29.023Z,38.46
2018-07-10T15:51:59.005Z,38.47
2018-07-10T15:54:29.045Z,38.14
2018-07-10T15:56:58.893Z,37.96
2018-07-10T15:59:28.911Z,37.20
2018-07-10T16:01:58.813Z,37.54
2018-07-10T16:04:28.694Z,37.38
2018-07-10T16:06:58.614Z,38.59
2018-07-10T16:09:28.634Z,37.74
2018-07-10T16:12:02.740Z,37.92
2018-07-10T16:14:32.732Z,38.10
2018-07-10T16:17:07.805Z,38.41
2018-07-10T16:19:45.342Z,39.00
2018-07-10T16:22:26.346Z,38.21
2018-07-10T16:25:00.260Z,39.26
2018-07-10T16:27:36.402Z,39.86
2018-07-10T16:30:06.884Z,40.02
2018-07-10T16:32:41.352Z,40.25
2018-07-10T16:35:12.801Z,40.89
2018-07-10T16:37:42.684Z,40.31
2018-07-10T16:40:12.661Z,42.17
2018-07-10T16:42:52.471Z,43.60
2018-07-10T16:45:29.826Z,45.76
2018-07-10T16:49:10.961Z,46.02
2018-07-10T16:52:54.033Z,45.03
2018-07-10T16:55:24.827Z,44.33
2018-07-10T16:57:54.991Z,45.30
2018-07-10T17:00:25.908Z,45.78
2018-07-10T17:02:56.538Z,44.42
2018-07-10T17:05:27.710Z,44.17
2018-07-10T17:07:57.726Z,43.23
2018-07-10T17:10:27.612Z,43.50
2018-07-10T17:12:57.597Z,43.95
2018-07-10T17:15:28.102Z,44.55
2018-07-10T17:17:57.826Z,45.00
2018-07-10T17:20:27.768Z,45.23
2018-07-10T17:22:57.466Z,44.85
2018-07-10T17:25:27.541Z,43.86
2018-07-10T17:27:57.488Z,44.60
2018-07-10T17:30:27.334Z,44.01
2018-07-10T17:32:57.274Z,44.10
2018-07-10T17:35:27.182Z,44.02
2018-07-10T17:37:57.412Z,44.82
2018-07-10T17:40:27.207Z,44.86
2018-07-10T17:42:57.255Z,44.61
2018-07-10T17:45:26.904Z,44.77
2018-07-10T17:47:56.796Z,45.74
2018-07-10T17:50:26.750Z,46.38
2018-07-10T17:52:57.250Z,47.49
2018-07-10T17:55:27.560Z,47.31
2018-07-10T17:58:04.818Z,49.44
2018-07-10T18:00:35.331Z,48.77
2018-07-10T18:03:05.238Z,48.93
2018-07-10T18:05:35.691Z,49.09
2018-07-10T18:08:05.463Z,47.66
2018-07-10T18:10:35.265Z,47.08
2018-07-10T18:13:05.370Z,47.28
2018-07-10T18:15:35.043Z,47.15
2018-07-10T18:18:04.958Z,47.68
2018-07-10T18:20:35.003Z,50.42
2018-07-10T18:23:05.479Z,49.51
2018-07-10T18:25:36.496Z,50.69
2018-07-10T18:28:06.504Z,50.89
2018-07-10T18:30:36.334Z,51.64
2018-07-10T18:33:06.347Z,52.53
2018-07-10T18:35:36.588Z,52.23
2018-07-10T18:38:06.815Z,51.11
2018-07-10T18:40:36.779Z,51.04
2018-07-10T18:43:06.641Z,50.52
2018-07-10T18:45:37.632Z,50.83
2018-07-10T18:48:07.541Z,50.26
2018-07-10T18:50:37.382Z,49.95
2018-07-10T18:53:07.337Z,50.03
2018-07-10T18:55:37.900Z,50.25
2018-07-10T18:58:14.028Z,50.20
2018-07-10T19:00:55.388Z,50.52
2018-07-10T19:03:25.246Z,50.65
2018-07-10T19:05:57.201Z,50.59
2018-07-10T19:08:27.212Z,53.01
2018-07-10T19:10:57.279Z,52.60
2018-07-10T19:13:27.198Z,54.83
2018-07-10T19:15:57.033Z,54.92
2018-07-10T19:18:26.992Z,55.48
2018-07-10T19:21:02.579Z,55.41
2018-07-10T19:23:46.653Z,54.94
2018-07-10T19:26:17.270Z,55.24
2018-07-10T19:28:48.316Z,55.58
2018-07-10T19:31:21.952Z,56.22
2018-07-10T19:33:54.630Z,56.07
2018-07-10T19:36:26.720Z,55.54
2018-07-10T19:38:56.914Z,55.65
2018-07-10T19:41:27.203Z,55.63
2018-07-10T19:43:57.212Z,53.85
2018-07-10T19:46:27.876Z,53.71
2018-07-10T19:48:57.761Z,54.04
2018-07-10T19:51:29.335Z,53.77
2018-07-10T19:54:09.946Z,54.18
2018-07-10T19:56:40.585Z,54.73
2018-07-10T19:59:12.774Z,52.09
2018-07-10T20:01:50.882Z,51.60
2018-07-10T20:04:25.873Z,51.43
2018-07-10T20:07:18.714Z,51.60
2018-07-10T20:09:53.408Z,52.47
2018-07-10T20:12:38.029Z,51.19
2018-07-10T20:15:24.237Z,50.79
2018-07-10T20:18:01.474Z,51.23
2018-07-10T20:20:34.337Z,51.72
2018-07-10T20:25:17.102Z,51.74
2018-07-10T20:27:55.989Z,51.16
2018-07-10T20:30:49.287Z,51.70
2018-07-10T20:33:30.467Z,51.35
2018-07-10T20:36:03.985Z,50.55
2018-07-10T20:38:33.715Z,50.39
2018-07-10T20:41:05.139Z,50.61
2018-07-10T20:43:40.266Z,51.27
2018-07-10T20:46:12.589Z,51.40
2018-07-10T20:48:48.703Z,51.61
2018-07-10T20:51:20.180Z,50.84
2018-07-10T20:54:57.969Z,51.77
2018-07-10T20:57:38.382Z,56.42
2018-07-10T21:00:11.029Z,55.61
2018-07-10T21:04:53.931Z,55.76
2018-07-10T21:07:30.317Z,55.78
2018-07-10T21:10:18.487Z,55.81
2018-07-10T21:13:10.204Z,55.36
2018-07-10T21:16:04.374Z,56.65
2018-07-10T21:18:48.524Z,55.43
2018-07-10T21:22:02.547Z,56.66
2018-07-10T21:24:39.581Z,56.57
2018-07-10T21:27:13.532Z,55.51
2018-07-10T21:29:57.318Z,54.65
2018-07-10T21:33:38.352Z,53.93
2018-07-10T21:36:13.769Z,52.18
2018-07-10T21:39:06.732Z,52.14
2018-07-10T21:41:47.049Z,52.06
2018-07-10T21:46:44.614Z,51.91
2018-07-10T21:49:40.399Z,54.44
2018-07-10T21:52:10.072Z,52.70
2018-07-10T21:54:40.146Z,53.96
2018-07-10T21:57:12.179Z,53.89
2018-07-10T21:59:46.257Z,56.33
2018-07-10T22:02:16.224Z,54.37
2018-07-10T22:04:46.149Z,53.92
2018-07-10T22:07:17.159Z,53.84
2018-07-10T22:09:47.110Z,53.71
2018-07-10T22:12:18.641Z,54.12
2018-07-10T22:14:48.719Z,53.79
2018-07-10T22:17:24.872Z,53.48
2018-07-10T22:19:55.861Z,53.50
2018-07-10T22:22:28.614Z,54.62
2018-07-10T22:25:00.647Z,53.93
2018-07-10T22:27:30.961Z,53.40
2018-07-10T22:30:05.949Z,54.31
2018-07-10T22:32:46.004Z,54.08
2018-07-10T22:35:16.831Z,54.54
2018-07-10T22:37:47.384Z,54.43
2018-07-10T22:40:19.111Z,54.76
2018-07-10T22:42:49.133Z,54.07
2018-07-10T22:45:20.365Z,53.71
2018-07-10T22:47:51.950Z,53.39
2018-07-10T22:50:24.214Z,54.15
2018-07-10T22:52:59.153Z,54.41
2018-07-10T22:55:34.094Z,55.33
2018-07-10T22:58:08.165Z,56.89
2018-07-10T23:00:40.371Z,55.60
2018-07-10T23:03:18.151Z,54.43
2018-07-10T23:05:49.422Z,54.27
2018-07-10T23:08:23.523Z,54.20
2018-07-10T23:10:53.452Z,54.30
2018-07-10T23:13:23.456Z,53.38
2018-07-10T23:15:53.429Z,53.03
2018-07-10T23:18:24.420Z,52.60
2018-07-10T23:20:54.416Z,53.29
2018-07-10T23:23:24.961Z,52.75
2018-07-10T23:25:54.946Z,53.96
2018-07-10T23:28:27.158Z,54.13
2018-07-10T23:30:57.117Z,53.23
2018-07-10T23:33:27.749Z,53.46
2018-07-10T23:35:59.762Z,57.58
2018-07-10T23:39:41.311Z,57.50
2018-07-10T23:42:17.287Z,57.93
2018-07-10T23:44:49.154Z,58.33
2018-07-10T23:47:29.495Z,56.81
2018-07-10T23:50:11.731Z,57.15
2018-07-10T23:54:50.523Z,55.78
2018-07-10T23:57:21.004Z,56.57
2018-07-10T23:59:50.938Z,55.95
